createdAt,value
2022-08-23T00:01:20.390Z,16.46
2022-08-23T00:03:50.956Z,16.44
2022-08-23T00:06:19.640Z,16.46
2022-08-23T00:08:49.071Z,16.42
2022-08-23T00:11:33.921Z,16.41
2022-08-23T00:14:07.677Z,16.43
2022-08-23T00:16:36.297Z,16.40
2022-08-23T00:19:05.509Z,16.44
2022-08-23T00:21:33.354Z,16.40
2022-08-23T00:24:01.489Z,16.40
2022-08-23T00:26:48.580Z,16.40
2022-08-23T00:29:18.374Z,16.43
2022-08-23T00:31:46.700Z,16.45
2022-08-23T00:34:14.945Z,16.46
2022-08-23T00:36:44.905Z,16.44
2022-08-23T00:39:13.217Z,16.43
2022-08-23T00:41:41.393Z,16.40
2022-08-23T00:44:34.377Z,16.35
2022-08-23T00:47:18.852Z,16.30
2022-08-23T00:49:51.987Z,16.32
2022-08-23T00:52:26.198Z,16.30
2022-08-23T00:54:55.265Z,16.28
2022-08-23T00:57:23.906Z,16.25
2022-08-23T00:59:51.924Z,16.26
2022-08-23T01:02:21.582Z,16.21
2022-08-23T01:04:56.000Z,16.11
2022-08-23T01:07:37.616Z,16.16
2022-08-23T01:10:13.235Z,16.16
2022-08-23T01:12:54.001Z,16.17
2022-08-23T01:15:26.432Z,16.23
2022-08-23T01:18:03.039Z,16.26
2022-08-23T01:20:36.672Z,16.30
2022-08-23T01:23:11.342Z,16.30
2022-08-23T01:25:41.182Z,16.33
2022-08-23T01:28:09.310Z,16.34
2022-08-23T01:30:38.940Z,16.27
2022-08-23T01:33:08.234Z,16.30
2022-08-23T01:35:40.349Z,16.35
2022-08-23T01:38:08.045Z,16.38
2022-08-23T01:40:36.522Z,16.42
2022-08-23T01:43:07.182Z,16.36
2022-08-23T01:45:35.752Z,16.29
2022-08-23T01:48:04.145Z,16.23
2022-08-23T01:50:32.795Z,16.27
2022-08-23T01:53:01.508Z,16.31
2022-08-23T01:55:29.618Z,16.33
2022-08-23T01:58:01.226Z,16.23
2022-08-23T02:00:33.997Z,16.26
2022-08-23T02:03:03.078Z,16.31
2022-08-23T02:05:31.652Z,16.32
2022-08-23T02:08:20.721Z,16.32
2022-08-23T02:10:48.893Z,16.33
2022-08-23T02:13:16.984Z,16.33
2022-08-23T02:15:51.092Z,16.37
2022-08-23T02:18:20.344Z,16.40
2022-08-23T02:20:50.466Z,16.40
2022-08-23T02:23:19.438Z,16.32
2022-08-23T02:25:47.596Z,16.32
2022-08-23T02:28:15.908Z,16.38
2022-08-23T02:30:47.476Z,16.38
2022-08-23T02:33:15.918Z,16.35
2022-08-23T02:35:45.029Z,16.35
2022-08-23T02:38:13.767Z,16.22
2022-08-23T02:40:43.074Z,16.20
2022-08-23T02:43:12.182Z,16.31
2022-08-23T02:45:40.275Z,16.34
2022-08-23T02:48:10.741Z,16.33
2022-08-23T02:50:38.841Z,16.35
2022-08-23T02:53:06.630Z,16.31
2022-08-23T02:55:34.923Z,16.27
2022-08-23T02:58:02.854Z,16.29
2022-08-23T03:00:30.977Z,16.28
2022-08-23T03:02:59.015Z,16.22
2022-08-23T03:05:28.312Z,16.22
2022-08-23T03:07:56.147Z,16.21
2022-08-23T03:10:24.248Z,16.27
2022-08-23T03:12:53.295Z,16.26
2022-08-23T03:15:21.600Z,16.21
2022-08-23T03:17:49.933Z,16.19
2022-08-23T03:20:18.146Z,16.21
2022-08-23T03:22:48.369Z,16.20
2022-08-23T03:25:22.760Z,16.19
2022-08-23T03:27:50.545Z,16.22
2022-08-23T03:30:19.999Z,16.14
2022-08-23T03:32:48.953Z,16.15
2022-08-23T03:35:17.689Z,16.13
2022-08-23T03:37:47.176Z,16.12
2022-08-23T03:40:15.501Z,16.05
2022-08-23T03:42:43.373Z,16.08
2022-08-23T03:45:11.803Z,16.06
2022-08-23T03:47:40.245Z,16.03
2022-08-23T03:50:09.024Z,15.97
2022-08-23T03:52:36.778Z,15.95
2022-08-23T03:55:07.379Z,15.89
2022-08-23T03:57:35.488Z,15.90
2022-08-23T04:00:03.585Z,15.91
2022-08-23T04:02:31.918Z,15.93
2022-08-23T04:04:59.705Z,15.92
2022-08-23T04:07:27.934Z,15.90
2022-08-23T04:09:56.019Z,15.98
2022-08-23T04:12:25.161Z,15.93
2022-08-23T04:14:53.700Z,15.94
2022-08-23T04:17:22.084Z,15.96
2022-08-23T04:19:50.569Z,16.00
2022-08-23T04:22:19.749Z,16.01
2022-08-23T04:24:48.726Z,16.05
2022-08-23T04:27:17.069Z,16.10
2022-08-23T04:29:46.221Z,16.10
2022-08-23T04:32:15.095Z,16.11
2022-08-23T04:34:54.994Z,16.16
2022-08-23T04:37:23.355Z,16.20
2022-08-23T04:40:08.986Z,16.21
2022-08-23T04:42:37.156Z,16.21
2022-08-23T04:45:07.378Z,16.20
2022-08-23T04:47:39.208Z,16.22
2022-08-23T04:50:07.929Z,16.26
2022-08-23T04:52:35.666Z,16.24
2022-08-23T04:55:04.177Z,16.16
2022-08-23T04:57:32.473Z,16.25
2022-08-23T05:00:00.580Z,16.26
2022-08-23T05:02:29.819Z,16.37
2022-08-23T05:04:57.956Z,16.42
2022-08-23T05:07:31.024Z,16.44
2022-08-23T05:10:12.673Z,16.52
2022-08-23T05:12:40.705Z,16.54
2022-08-23T05:15:10.234Z,16.45
2022-08-23T05:17:40.434Z,16.52
2022-08-23T05:20:10.636Z,16.60
2022-08-23T05:22:40.880Z,16.48
2022-08-23T05:25:09.803Z,16.58
2022-08-23T05:27:38.212Z,16.51
2022-08-23T05:30:08.613Z,16.54
2022-08-23T05:32:44.709Z,16.64
2022-08-23T05:35:12.751Z,16.67
2022-08-23T05:37:40.614Z,16.74
2022-08-23T05:40:09.759Z,16.72
2022-08-23T05:42:38.606Z,16.76
2022-08-23T05:45:07.956Z,16.78
2022-08-23T05:47:35.885Z,16.91
2022-08-23T05:50:05.831Z,16.90
2022-08-23T05:52:33.696Z,16.91
2022-08-23T05:55:02.649Z,16.82
2022-08-23T05:57:30.976Z,16.78
2022-08-23T05:59:58.781Z,16.96
2022-08-23T06:02:26.725Z,16.95
2022-08-23T06:04:57.453Z,17.02
2022-08-23T06:07:26.739Z,16.98
2022-08-23T06:09:55.445Z,17.10
2022-08-23T06:12:23.324Z,17.13
2022-08-23T06:14:51.496Z,17.28
2022-08-23T06:17:20.706Z,17.25
2022-08-23T06:19:48.881Z,17.20
2022-08-23T06:22:16.925Z,17.31
2022-08-23T06:24:46.337Z,17.33
2022-08-23T06:27:15.005Z,17.50
2022-08-23T06:29:43.086Z,17.47
2022-08-23T06:32:11.214Z,17.49
2022-08-23T06:34:39.289Z,17.59
2022-08-23T06:37:12.452Z,17.57
2022-08-23T06:39:40.759Z,17.58
2022-08-23T06:42:34.857Z,17.69
2022-08-23T06:45:00.388Z,17.77
2022-08-23T06:47:28.493Z,17.69
2022-08-23T06:49:57.625Z,17.96
2022-08-23T06:52:27.234Z,17.98
2022-08-23T06:54:55.342Z,17.91
2022-08-23T06:57:24.505Z,17.92
2022-08-23T06:59:52.609Z,18.10
2022-08-23T07:02:20.673Z,18.08
2022-08-23T07:04:53.750Z,18.18
2022-08-23T07:07:22.331Z,18.12
2022-08-23T07:09:50.151Z,18.15
2022-08-23T07:12:19.801Z,18.21
2022-08-23T07:14:50.103Z,18.28
2022-08-23T07:17:17.897Z,18.22
2022-08-23T07:19:45.789Z,18.17
2022-08-23T07:22:15.601Z,18.15
2022-08-23T07:24:43.932Z,18.34
2022-08-23T07:27:12.722Z,18.42
2022-08-23T07:29:41.420Z,18.52
2022-08-23T07:32:11.127Z,18.62
2022-08-23T07:34:38.922Z,18.81
2022-08-23T07:37:11.539Z,18.91
2022-08-23T07:39:43.941Z,19.12
2022-08-23T07:42:23.891Z,19.30
2022-08-23T07:44:53.316Z,19.42
2022-08-23T07:47:23.381Z,19.57
2022-08-23T07:49:51.927Z,19.66
2022-08-23T07:52:19.777Z,19.80
2022-08-23T07:54:48.571Z,19.61
2022-08-23T07:57:17.951Z,19.63
2022-08-23T07:59:45.913Z,19.79
2022-08-23T08:02:14.035Z,20.02
2022-08-23T08:04:43.990Z,20.02
2022-08-23T08:07:19.528Z,20.09
2022-08-23T08:09:49.538Z,20.18
2022-08-23T08:12:17.664Z,20.25
2022-08-23T08:14:48.101Z,20.42
2022-08-23T08:17:17.119Z,20.51
2022-08-23T08:19:46.707Z,20.62
2022-08-23T08:22:14.760Z,20.83
2022-08-23T08:24:43.549Z,20.96
2022-08-23T08:27:11.416Z,20.98
2022-08-23T08:29:39.405Z,21.03
2022-08-23T08:32:08.955Z,21.14
2022-08-23T08:34:42.169Z,21.32
2022-08-23T08:37:12.009Z,21.46
2022-08-23T08:39:45.557Z,21.63
2022-08-23T08:42:32.390Z,21.79
2022-08-23T08:45:03.894Z,22.05
2022-08-23T08:47:36.137Z,22.15
2022-08-23T08:50:04.878Z,21.96
2022-08-23T08:52:40.272Z,21.93
2022-08-23T08:55:12.958Z,21.71
2022-08-23T08:57:44.529Z,21.64
2022-08-23T09:00:16.991Z,21.33
2022-08-23T09:02:45.960Z,21.35
2022-08-23T09:05:16.482Z,21.20
2022-08-23T09:07:56.273Z,21.33
2022-08-23T09:10:41.041Z,21.08
2022-08-23T09:13:29.090Z,20.85
2022-08-23T09:16:05.098Z,20.97
2022-08-23T09:18:36.533Z,20.97
2022-08-23T09:21:08.697Z,20.70
2022-08-23T09:23:43.356Z,20.94
2022-08-23T09:26:23.078Z,20.82
2022-08-23T09:28:53.707Z,21.11
2022-08-23T09:31:39.127Z,21.12
2022-08-23T09:34:08.551Z,21.07
2022-08-23T09:36:39.125Z,21.33
2022-08-23T09:39:24.428Z,21.51
2022-08-23T09:41:59.836Z,21.91
2022-08-23T09:44:37.545Z,22.34
2022-08-23T09:47:07.902Z,22.84
2022-08-23T09:49:37.472Z,23.14
2022-08-23T09:52:21.940Z,23.36
2022-08-23T09:55:01.033Z,23.49
2022-08-23T09:57:31.282Z,23.53
2022-08-23T10:00:03.516Z,23.51
2022-08-23T10:02:35.331Z,22.96
2022-08-23T10:05:07.962Z,23.09
2022-08-23T10:07:45.681Z,22.96
2022-08-23T10:10:29.265Z,22.40
2022-08-23T10:12:59.018Z,22.50
2022-08-23T10:15:49.298Z,22.65
2022-08-23T10:18:27.690Z,22.62
2022-08-23T10:21:03.016Z,22.26
2022-08-23T10:23:45.475Z,21.97
2022-08-23T10:26:28.705Z,21.88
2022-08-23T10:29:21.426Z,21.99
2022-08-23T10:32:04.448Z,22.04
2022-08-23T10:34:47.183Z,22.31
2022-08-23T10:37:32.183Z,22.29
2022-08-23T10:40:04.582Z,21.94
2022-08-23T10:42:44.539Z,22.20
2022-08-23T10:45:22.564Z,21.99
2022-08-23T10:48:05.074Z,22.55
2022-08-23T10:50:42.697Z,22.49
2022-08-23T10:53:16.129Z,22.87
2022-08-23T10:56:02.953Z,23.18
2022-08-23T10:58:38.759Z,22.93
2022-08-23T11:01:08.234Z,22.53
2022-08-23T11:03:43.398Z,22.44
2022-08-23T11:06:40.369Z,22.24
2022-08-23T11:09:10.986Z,22.20
2022-08-23T11:11:45.956Z,22.35
2022-08-23T11:14:29.205Z,22.41
2022-08-23T11:17:00.388Z,22.31
2022-08-23T11:19:50.754Z,22.48
2022-08-23T11:22:26.617Z,22.45
2022-08-23T11:24:58.690Z,22.47
2022-08-23T11:27:39.284Z,22.49
2022-08-23T11:30:43.605Z,22.93
2022-08-23T11:33:19.707Z,23.54
2022-08-23T11:35:50.589Z,24.08
2022-08-23T11:38:38.942Z,24.46
2022-08-23T11:41:22.972Z,25.07
2022-08-23T11:44:22.394Z,24.82
2022-08-23T11:47:01.081Z,24.70
2022-08-23T11:50:06.449Z,24.05
2022-08-23T11:53:19.868Z,23.86
2022-08-23T11:56:12.364Z,23.69
2022-08-23T11:59:13.477Z,23.26
2022-08-23T12:01:43.373Z,23.29
2022-08-23T12:04:27.640Z,23.46
2022-08-23T12:07:02.885Z,23.67
2022-08-23T12:09:53.443Z,23.61
2022-08-23T12:12:28.341Z,23.57
2022-08-23T12:14:58.859Z,23.32
2022-08-23T12:17:55.563Z,23.23
2022-08-23T12:20:29.881Z,23.36
2022-08-23T12:23:13.147Z,23.73
2022-08-23T12:25:42.667Z,23.74
2022-08-23T12:28:32.225Z,23.95
2022-08-23T12:31:07.882Z,24.33
2022-08-23T12:33:52.640Z,24.24
2022-08-23T12:36:30.011Z,23.75
2022-08-23T12:39:07.580Z,23.97
2022-08-23T12:41:52.350Z,24.10
2022-08-23T12:44:22.452Z,24.57
2022-08-23T12:46:51.686Z,24.42
2022-08-23T12:49:28.888Z,24.74
2022-08-23T12:52:00.732Z,24.90
2022-08-23T12:54:38.133Z,25.13
2022-08-23T12:57:11.590Z,24.99
2022-08-23T12:59:44.344Z,25.12
2022-08-23T13:02:19.558Z,25.08
2022-08-23T13:04:47.853Z,25.40
2022-08-23T13:07:22.098Z,25.20
2022-08-23T13:09:53.852Z,25.23
2022-08-23T13:12:24.345Z,25.25
2022-08-23T13:14:55.247Z,25.27
2022-08-23T13:17:32.633Z,25.41
2022-08-23T13:20:19.936Z,25.54
2022-08-23T13:22:58.390Z,25.55
2022-08-23T13:25:31.901Z,25.98
2022-08-23T13:28:03.377Z,25.57
2022-08-23T13:30:33.654Z,25.21
2022-08-23T13:33:21.925Z,24.84
2022-08-23T13:35:51.395Z,24.93
2022-08-23T13:38:23.644Z,25.42
2022-08-23T13:41:03.481Z,26.02
2022-08-23T13:43:36.310Z,25.63
2022-08-23T13:46:15.738Z,25.70
2022-08-23T13:48:49.959Z,25.81
2022-08-23T13:51:20.622Z,25.75
2022-08-23T13:53:48.461Z,25.81
2022-08-23T13:56:17.628Z,25.79
2022-08-23T13:58:54.995Z,25.55
2022-08-23T14:01:23.086Z,25.55
2022-08-23T14:03:51.213Z,25.50
2022-08-23T14:06:19.697Z,25.20
2022-08-23T14:08:48.221Z,24.81
2022-08-23T14:11:17.630Z,25.16
2022-08-23T14:13:48.626Z,25.38
2022-08-23T14:16:40.072Z,25.37
2022-08-23T14:19:54.865Z,25.42
2022-08-23T14:21:58.590Z,25.68
2022-08-23T14:24:27.137Z,25.97
2022-08-23T14:26:57.629Z,25.75
2022-08-23T14:29:28.237Z,25.64
2022-08-23T14:31:57.733Z,25.86
2022-08-23T14:34:26.561Z,26.05
2022-08-23T14:39:42.889Z,26.08
2022-08-23T14:42:14.023Z,25.70
2022-08-23T14:44:42.520Z,25.88
2022-08-23T14:47:10.740Z,25.78
2022-08-23T14:49:38.689Z,25.32
2022-08-23T14:52:07.306Z,25.24
2022-08-23T14:54:35.879Z,25.38
2022-08-23T14:57:04.047Z,25.14
2022-08-23T14:59:33.228Z,25.21
2022-08-23T15:02:01.968Z,25.53
2022-08-23T15:04:34.514Z,25.55
2022-08-23T15:07:19.822Z,25.69
2022-08-23T15:09:54.429Z,25.60
2022-08-23T15:15:16.602Z,26.13
2022-08-23T15:17:52.197Z,25.90
2022-08-23T15:20:21.008Z,26.19
2022-08-23T15:22:55.056Z,26.13
2022-08-23T15:25:25.416Z,25.92
2022-08-23T15:27:54.026Z,25.74
2022-08-23T15:30:24.577Z,25.47
2022-08-23T15:32:56.562Z,25.87
2022-08-23T15:35:26.534Z,25.79
2022-08-23T15:37:57.211Z,25.55
2022-08-23T15:40:26.116Z,25.83
2022-08-23T15:42:54.449Z,25.52
2022-08-23T15:45:24.006Z,25.68
2022-08-23T15:47:54.851Z,25.49
2022-08-23T15:50:26.024Z,25.75
2022-08-23T15:52:54.598Z,25.14
2022-08-23T15:55:24.818Z,25.36
2022-08-23T15:57:54.783Z,25.22
2022-08-23T16:00:24.893Z,25.29
2022-08-23T16:03:19.176Z,25.09
2022-08-23T16:05:44.403Z,24.99
2022-08-23T16:08:18.377Z,24.57
2022-08-23T16:10:46.733Z,24.48
2022-08-23T16:13:15.085Z,24.49
2022-08-23T16:15:44.480Z,24.12
2022-08-23T16:18:12.523Z,24.13
2022-08-23T16:20:40.743Z,23.96
2022-08-23T16:23:08.947Z,23.97
2022-08-23T16:25:37.114Z,23.95
2022-08-23T16:28:07.221Z,23.98
2022-08-23T16:30:35.503Z,23.78
2022-08-23T16:33:05.100Z,23.89
2022-08-23T16:35:33.148Z,23.94
2022-08-23T16:38:00.885Z,23.87
2022-08-23T16:40:28.693Z,23.82
2022-08-23T16:42:57.362Z,23.57
2022-08-23T16:45:25.953Z,23.41
2022-08-23T16:47:54.498Z,23.46
2022-08-23T16:50:23.991Z,23.30
2022-08-23T16:52:51.994Z,23.21
2022-08-23T16:55:19.943Z,23.26
2022-08-23T16:57:47.920Z,23.30
2022-08-23T17:00:16.273Z,23.24
2022-08-23T17:02:44.639Z,23.31
2022-08-23T17:05:16.446Z,23.22
2022-08-23T17:07:46.028Z,23.13
2022-08-23T17:10:16.908Z,23.10
2022-08-23T17:12:48.864Z,23.12
2022-08-23T17:15:20.668Z,23.01
2022-08-23T17:17:49.270Z,22.87
2022-08-23T17:20:18.375Z,22.54
2022-08-23T17:22:49.235Z,22.33
2022-08-23T17:25:18.174Z,22.17
2022-08-23T17:27:47.249Z,22.05
2022-08-23T17:30:17.941Z,21.97
2022-08-23T17:32:47.644Z,21.86
2022-08-23T17:35:17.652Z,21.73
2022-08-23T17:37:47.198Z,21.54
2022-08-23T17:40:21.102Z,21.43
2022-08-23T17:42:49.796Z,21.41
2022-08-23T17:45:18.872Z,21.43
2022-08-23T17:47:47.005Z,21.42
2022-08-23T17:50:16.137Z,21.35
2022-08-23T17:52:44.979Z,21.08
2022-08-23T17:55:17.137Z,21.12
2022-08-23T17:57:48.368Z,21.06
2022-08-23T18:00:18.749Z,20.95
2022-08-23T18:02:46.571Z,20.79
2022-08-23T18:05:14.704Z,20.76
2022-08-23T18:07:42.561Z,20.66
2022-08-23T18:10:12.322Z,20.55
2022-08-23T18:12:41.882Z,20.51
2022-08-23T18:15:11.328Z,20.40
2022-08-23T18:17:40.149Z,20.33
2022-08-23T18:20:11.636Z,20.39
2022-08-23T18:22:40.231Z,20.43
2022-08-23T18:25:09.820Z,20.34
2022-08-23T18:27:55.923Z,20.35
2022-08-23T18:30:26.372Z,20.30
2022-08-23T18:32:54.718Z,20.18
2022-08-23T18:35:25.752Z,20.12
2022-08-23T18:37:54.362Z,20.18
2022-08-23T18:40:22.555Z,20.22
2022-08-23T18:42:50.894Z,20.20
2022-08-23T18:45:19.309Z,20.23
2022-08-23T18:47:51.497Z,20.27
2022-08-23T18:50:19.757Z,20.29
2022-08-23T18:52:47.638Z,20.30
2022-08-23T18:55:17.485Z,20.34
2022-08-23T18:57:45.337Z,20.37
2022-08-23T19:00:13.928Z,20.35
2022-08-23T19:02:42.048Z,20.19
2022-08-23T19:05:11.254Z,20.25
2022-08-23T19:07:39.089Z,20.22
2022-08-23T19:10:08.278Z,20.14
2022-08-23T19:12:36.146Z,20.04
2022-08-23T19:15:04.820Z,19.98
2022-08-23T19:17:33.080Z,19.76
2022-08-23T19:20:01.188Z,19.69
2022-08-23T19:22:30.297Z,19.76
2022-08-23T19:24:58.241Z,19.68
2022-08-23T19:27:26.270Z,19.62
2022-08-23T19:29:54.202Z,19.63
2022-08-23T19:32:24.885Z,19.62
2022-08-23T19:34:52.905Z,19.54
2022-08-23T19:37:23.197Z,19.54
2022-08-23T19:39:53.031Z,19.52
2022-08-23T19:42:21.504Z,19.40
2022-08-23T19:44:49.499Z,19.32
2022-08-23T19:47:20.340Z,19.33
2022-08-23T19:49:49.562Z,19.28
2022-08-23T19:52:17.524Z,19.29
2022-08-23T19:54:45.575Z,19.20
2022-08-23T19:57:14.868Z,19.07
2022-08-23T19:59:42.839Z,19.03
2022-08-23T20:02:13.787Z,18.92
2022-08-23T20:04:42.479Z,18.89
2022-08-23T20:07:10.330Z,18.77
2022-08-23T20:09:38.353Z,18.83
2022-08-23T20:12:06.546Z,18.86
2022-08-23T20:14:36.327Z,18.88
2022-08-23T20:17:07.365Z,18.79
2022-08-23T20:19:36.043Z,18.81
2022-08-23T20:22:18.543Z,18.79
2022-08-23T20:24:52.166Z,18.59
2022-08-23T20:27:28.404Z,18.70
2022-08-23T20:30:01.244Z,18.70
2022-08-23T20:32:29.735Z,18.72
2022-08-23T20:34:57.569Z,18.74
2022-08-23T20:37:25.630Z,18.74
2022-08-23T20:39:53.469Z,18.77
2022-08-23T20:42:21.430Z,18.69
2022-08-23T20:44:49.431Z,18.63
2022-08-23T20:47:18.952Z,18.77
2022-08-23T20:49:46.773Z,18.78
2022-08-23T20:52:16.599Z,18.79
2022-08-23T20:54:44.887Z,18.80
2022-08-23T20:57:12.833Z,18.78
2022-08-23T20:59:44.421Z,18.73
2022-08-23T21:02:12.928Z,18.72
2022-08-23T21:04:42.416Z,18.71
2022-08-23T21:07:10.389Z,18.69
2022-08-23T21:09:38.147Z,18.71
2022-08-23T21:12:06.442Z,18.68
2022-08-23T21:14:34.473Z,18.57
2022-08-23T21:17:02.398Z,18.57
2022-08-23T21:19:31.279Z,18.57
2022-08-23T21:22:00.996Z,18.65
2022-08-23T21:24:29.067Z,18.63
2022-08-23T21:26:57.228Z,18.63
2022-08-23T21:29:25.036Z,18.65
2022-08-23T21:31:53.882Z,18.66
2022-08-23T21:34:21.863Z,18.61
2022-08-23T21:36:51.193Z,18.69
2022-08-23T21:39:20.311Z,18.71
2022-08-23T21:41:49.199Z,18.58
2022-08-23T21:44:19.241Z,18.59
2022-08-23T21:46:48.153Z,18.53
2022-08-23T21:49:17.053Z,18.58
2022-08-23T21:51:45.976Z,18.59
2022-08-23T21:54:14.782Z,18.56
2022-08-23T21:56:45.752Z,18.59
2022-08-23T21:59:16.666Z,18.53
2022-08-23T22:01:45.117Z,18.59
2022-08-23T22:04:14.626Z,18.60
2022-08-23T22:06:44.847Z,18.54
2022-08-23T22:09:16.493Z,18.55
2022-08-23T22:11:47.462Z,18.49
2022-08-23T22:14:19.944Z,18.37
2022-08-23T22:16:49.346Z,18.39
2022-08-23T22:19:23.466Z,18.37
2022-08-23T22:21:52.418Z,18.39
2022-08-23T22:24:25.550Z,18.41
2022-08-23T22:26:56.390Z,18.40
2022-08-23T22:29:24.744Z,18.46
2022-08-23T22:31:52.554Z,18.43
2022-08-23T22:34:20.929Z,18.40
2022-08-23T22:36:52.455Z,18.42
2022-08-23T22:39:21.148Z,18.29
2022-08-23T22:41:49.873Z,18.34
2022-08-23T22:44:19.369Z,18.30
2022-08-23T22:46:47.379Z,18.32
2022-08-23T22:49:15.485Z,18.39
2022-08-23T22:51:43.444Z,18.36
2022-08-23T22:54:12.345Z,18.42
2022-08-23T22:56:42.652Z,18.45
2022-08-23T22:59:11.145Z,18.36
2022-08-23T23:01:44.261Z,18.47
2022-08-23T23:04:14.634Z,18.46
2022-08-23T23:06:43.034Z,18.34
2022-08-23T23:09:13.375Z,18.40
2022-08-23T23:11:42.477Z,18.26
2022-08-23T23:14:12.212Z,18.21
2022-08-23T23:16:49.312Z,18.21
2022-08-23T23:19:35.854Z,18.23
2022-08-23T23:22:04.535Z,18.21
2022-08-23T23:24:34.820Z,18.19
2022-08-23T23:27:03.513Z,18.17
2022-08-23T23:29:32.398Z,18.22
2022-08-23T23:32:01.833Z,18.11
2022-08-23T23:34:29.913Z,18.18
2022-08-23T23:36:58.947Z,18.16
2022-08-23T23:39:27.407Z,18.21
2022-08-23T23:41:55.938Z,18.22
2022-08-23T23:44:31.282Z,18.11
2022-08-23T23:47:02.141Z,18.04
2022-08-23T23:49:32.805Z,18.09
2022-08-23T23:52:03.391Z,18.13
2022-08-23T23:54:31.931Z,18.07
2022-08-23T23:57:00.127Z,17.97
2022-08-23T23:59:28.514Z,17.94
